createdAt,value
2022-07-28T00:00:16.381Z,13.98
2022-07-28T00:02:43.831Z,13.91
2022-07-28T00:05:11.990Z,13.89
2022-07-28T00:07:39.487Z,13.42
2022-07-28T00:10:08.101Z,13.28
2022-07-28T00:12:36.919Z,13.55
2022-07-28T00:15:04.898Z,13.44
2022-07-28T00:17:32.318Z,13.35
2022-07-28T00:19:59.730Z,13.39
2022-07-28T00:22:27.210Z,13.13
2022-07-28T00:24:54.634Z,13.05
2022-07-28T00:27:22.064Z,13.04
2022-07-28T00:29:51.306Z,13.10
2022-07-28T00:32:19.216Z,13.25
2022-07-28T00:34:46.913Z,13.07
2022-07-28T00:37:15.182Z,13.05
2022-07-28T00:39:42.747Z,13.16
2022-07-28T00:42:10.272Z,13.13
2022-07-28T00:44:39.053Z,13.28
2022-07-28T00:47:07.993Z,13.23
2022-07-28T00:49:35.428Z,13.16
2022-07-28T00:52:03.598Z,13.21
2022-07-28T00:54:33.492Z,13.21
2022-07-28T00:57:01.236Z,13.11
2022-07-28T00:59:28.640Z,12.95
2022-07-28T01:01:56.925Z,12.97
2022-07-28T01:04:26.603Z,12.95
2022-07-28T01:07:05.973Z,12.98
2022-07-28T01:09:45.147Z,13.11
2022-07-28T01:12:26.136Z,12.97
2022-07-28T01:15:02.251Z,13.17
2022-07-28T01:17:36.853Z,13.04
2022-07-28T01:20:12.667Z,12.94
2022-07-28T01:22:46.289Z,12.91
2022-07-28T01:25:24.781Z,12.89
2022-07-28T01:28:03.762Z,12.91
2022-07-28T01:30:37.624Z,12.95
2022-07-28T01:33:09.317Z,12.97
2022-07-28T01:35:42.746Z,12.95
2022-07-28T01:38:12.627Z,13.07
2022-07-28T01:40:43.666Z,12.66
2022-07-28T01:43:15.429Z,12.58
2022-07-28T01:45:46.142Z,12.32
2022-07-28T01:48:16.015Z,12.42
2022-07-28T01:50:45.053Z,12.54
2022-07-28T01:53:14.655Z,12.58
2022-07-28T01:55:44.898Z,12.51
2022-07-28T01:58:13.974Z,12.48
2022-07-28T02:00:42.816Z,12.45
2022-07-28T02:03:13.341Z,12.28
2022-07-28T02:05:43.479Z,12.32
2022-07-28T02:08:13.756Z,12.30
2022-07-28T02:10:42.930Z,12.27
2022-07-28T02:13:12.092Z,12.12
2022-07-28T02:15:41.755Z,12.08
2022-07-28T02:18:11.972Z,12.16
2022-07-28T02:20:40.845Z,12.18
2022-07-28T02:23:09.506Z,12.21
2022-07-28T02:25:39.396Z,12.13
2022-07-28T02:28:09.068Z,12.06
2022-07-28T02:30:41.974Z,12.14
2022-07-28T02:33:15.985Z,12.11
2022-07-28T02:35:56.700Z,12.14
2022-07-28T02:38:30.522Z,12.17
2022-07-28T02:41:02.045Z,12.18
2022-07-28T02:43:45.846Z,12.18
2022-07-28T02:46:22.922Z,12.16
2022-07-28T02:48:55.868Z,12.06
2022-07-28T02:51:25.864Z,11.95
2022-07-28T02:53:54.543Z,12.04
2022-07-28T02:56:23.629Z,11.95
2022-07-28T02:58:52.673Z,12.14
2022-07-28T03:01:21.343Z,12.00
2022-07-28T03:03:49.383Z,11.96
2022-07-28T03:06:28.502Z,11.92
2022-07-28T03:08:56.718Z,11.68
2022-07-28T03:11:24.204Z,11.51
2022-07-28T03:13:51.650Z,11.18
2022-07-28T03:16:19.172Z,11.24
2022-07-28T03:18:46.643Z,11.30
2022-07-28T03:21:14.057Z,11.50
2022-07-28T03:23:44.591Z,11.53
2022-07-28T03:26:18.171Z,11.85
2022-07-28T03:28:46.966Z,11.73
2022-07-28T03:31:16.032Z,11.43
2022-07-28T03:33:43.598Z,11.70
2022-07-28T03:36:16.021Z,11.90
2022-07-28T03:38:49.490Z,11.52
2022-07-28T03:41:18.652Z,11.35
2022-07-28T03:43:47.171Z,11.56
2022-07-28T03:46:14.815Z,11.64
2022-07-28T03:48:42.300Z,11.42
2022-07-28T03:51:09.752Z,11.56
2022-07-28T03:53:37.407Z,11.66
2022-07-28T03:56:06.354Z,11.69
2022-07-28T03:58:33.818Z,11.79
2022-07-28T04:01:01.346Z,11.83
2022-07-28T04:03:41.225Z,11.72
2022-07-28T04:06:11.165Z,11.87
2022-07-28T04:08:38.615Z,11.86
2022-07-28T04:11:07.509Z,11.94
2022-07-28T04:13:36.639Z,11.99
2022-07-28T04:16:04.621Z,12.08
2022-07-28T04:18:32.200Z,12.13
2022-07-28T04:21:00.115Z,12.25
2022-07-28T04:23:27.580Z,12.18
2022-07-28T04:25:55.360Z,12.16
2022-07-28T04:28:24.167Z,12.15
2022-07-28T04:30:51.721Z,12.11
2022-07-28T04:33:19.630Z,12.56
2022-07-28T04:35:47.803Z,13.25
2022-07-28T04:38:17.768Z,14.27
2022-07-28T04:40:45.226Z,15.63
2022-07-28T04:43:12.626Z,16.10
2022-07-28T04:45:46.038Z,15.56
2022-07-28T04:48:21.864Z,15.15
2022-07-28T04:50:51.112Z,14.86
2022-07-28T04:53:19.199Z,14.54
2022-07-28T04:55:46.737Z,14.22
2022-07-28T04:58:14.176Z,14.20
2022-07-28T05:00:45.649Z,14.26
2022-07-28T05:03:13.275Z,14.34
2022-07-28T05:05:40.760Z,14.10
2022-07-28T05:08:08.336Z,14.32
2022-07-28T05:10:35.786Z,14.24
2022-07-28T05:13:06.949Z,14.23
2022-07-28T05:15:34.697Z,14.10
2022-07-28T05:18:03.419Z,14.22
2022-07-28T05:20:30.864Z,14.44
2022-07-28T05:22:58.306Z,14.51
2022-07-28T05:25:26.603Z,14.47
2022-07-28T05:27:54.549Z,14.69
2022-07-28T05:30:22.571Z,14.95
2022-07-28T05:32:50.940Z,15.33
2022-07-28T05:35:19.709Z,15.43
2022-07-28T05:37:47.125Z,15.21
2022-07-28T05:40:16.314Z,15.72
2022-07-28T05:42:44.743Z,16.03
2022-07-28T05:45:16.639Z,16.10
2022-07-28T05:47:46.385Z,16.41
2022-07-28T05:50:15.228Z,15.92
2022-07-28T05:52:44.285Z,16.15
2022-07-28T05:55:12.148Z,16.21
2022-07-28T05:57:40.792Z,16.23
2022-07-28T06:00:10.690Z,16.39
2022-07-28T06:02:38.357Z,16.46
2022-07-28T06:05:07.026Z,16.76
2022-07-28T06:07:43.597Z,16.38
2022-07-28T06:10:15.694Z,16.94
2022-07-28T06:12:44.199Z,16.81
2022-07-28T06:15:18.055Z,16.96
2022-07-28T06:17:45.860Z,17.31
2022-07-28T06:20:14.314Z,17.13
2022-07-28T06:22:43.176Z,17.36
2022-07-28T06:25:15.348Z,17.37
2022-07-28T06:27:43.416Z,17.51
2022-07-28T06:30:11.553Z,17.71
2022-07-28T06:32:40.017Z,17.71
2022-07-28T06:35:09.021Z,17.76
2022-07-28T06:37:36.575Z,17.78
2022-07-28T06:40:04.573Z,18.23
2022-07-28T06:42:33.324Z,18.42
2022-07-28T06:45:00.825Z,18.51
2022-07-28T06:47:28.554Z,18.09
2022-07-28T06:49:56.064Z,18.22
2022-07-28T06:52:23.691Z,18.05
2022-07-28T06:54:52.918Z,18.45
2022-07-28T06:57:22.046Z,18.34
2022-07-28T06:59:50.910Z,18.69
2022-07-28T07:02:18.486Z,19.11
2022-07-28T07:04:46.397Z,18.91
2022-07-28T07:07:14.853Z,19.29
2022-07-28T07:09:44.840Z,19.97
2022-07-28T07:12:12.312Z,20.47
2022-07-28T07:14:39.728Z,20.39
2022-07-28T07:17:08.477Z,20.47
2022-07-28T07:19:35.899Z,20.95
2022-07-28T07:22:03.332Z,21.91
2022-07-28T07:24:30.780Z,21.59
2022-07-28T07:26:58.219Z,20.35
2022-07-28T07:29:30.396Z,20.67
2022-07-28T07:31:58.848Z,21.54
2022-07-28T07:34:27.666Z,20.76
2022-07-28T07:36:55.058Z,21.08
2022-07-28T07:39:23.526Z,21.19
2022-07-28T07:41:50.939Z,21.00
2022-07-28T07:44:18.464Z,21.92
2022-07-28T07:46:45.968Z,22.21
2022-07-28T07:49:13.684Z,22.32
2022-07-28T07:51:42.433Z,22.65
2022-07-28T07:54:09.993Z,22.98
2022-07-28T07:56:37.413Z,22.54
2022-07-28T07:59:04.831Z,21.74
2022-07-28T08:01:32.510Z,21.73
2022-07-28T08:04:00.901Z,21.98
2022-07-28T08:06:28.686Z,22.22
2022-07-28T08:08:58.014Z,22.13
2022-07-28T08:11:25.457Z,21.75
2022-07-28T08:13:52.907Z,21.49
2022-07-28T08:16:20.402Z,21.86
2022-07-28T08:18:47.895Z,22.02
2022-07-28T08:21:16.195Z,22.22
2022-07-28T08:23:43.597Z,22.38
2022-07-28T08:26:12.352Z,22.66
2022-07-28T08:28:39.759Z,23.01
2022-07-28T08:31:11.052Z,23.41
2022-07-28T08:33:54.092Z,22.95
2022-07-28T08:36:22.571Z,23.21
2022-07-28T08:38:50.025Z,23.26
2022-07-28T08:41:23.205Z,23.35
2022-07-28T08:43:53.690Z,23.25
2022-07-28T08:46:22.389Z,23.23
2022-07-28T08:48:51.801Z,23.26
2022-07-28T08:51:20.922Z,23.27
2022-07-28T08:53:50.042Z,23.69
2022-07-28T08:56:20.025Z,23.72
2022-07-28T08:58:47.600Z,23.35
2022-07-28T09:01:15.079Z,23.18
2022-07-28T09:03:43.637Z,23.28
2022-07-28T09:06:11.446Z,23.81
2022-07-28T09:08:38.911Z,24.23
2022-07-28T09:11:08.162Z,23.82
2022-07-28T09:13:38.346Z,24.19
2022-07-28T09:16:06.851Z,24.01
2022-07-28T09:18:34.726Z,24.79
2022-07-28T09:21:02.165Z,24.09
2022-07-28T09:23:44.548Z,23.83
2022-07-28T09:26:13.179Z,23.68
2022-07-28T09:28:53.449Z,23.88
2022-07-28T09:31:23.297Z,24.27
2022-07-28T09:33:55.624Z,24.61
2022-07-28T09:36:23.463Z,24.47
2022-07-28T09:38:51.579Z,24.56
2022-07-28T09:41:21.856Z,25.19
2022-07-28T09:43:55.212Z,25.49
2022-07-28T09:46:25.438Z,25.08
2022-07-28T09:48:56.496Z,25.26
2022-07-28T09:51:26.810Z,25.54
2022-07-28T09:54:06.445Z,24.99
2022-07-28T09:56:34.136Z,25.07
2022-07-28T09:59:03.834Z,25.32
2022-07-28T10:01:36.754Z,25.20
2022-07-28T10:04:05.001Z,25.01
2022-07-28T10:06:34.502Z,24.92
2022-07-28T10:09:03.497Z,25.52
2022-07-28T10:11:31.485Z,24.95
2022-07-28T10:14:02.848Z,25.46
2022-07-28T10:16:33.532Z,25.13
2022-07-28T10:19:02.153Z,25.56
2022-07-28T10:21:32.867Z,25.60
2022-07-28T10:24:05.482Z,25.88
2022-07-28T10:26:34.547Z,26.26
2022-07-28T10:29:07.052Z,26.48
2022-07-28T10:31:42.134Z,26.08
2022-07-28T10:34:16.486Z,25.26
2022-07-28T10:36:45.286Z,25.22
2022-07-28T10:39:15.116Z,25.21
2022-07-28T10:41:43.838Z,25.14
2022-07-28T10:44:15.117Z,25.40
2022-07-28T10:46:45.028Z,25.46
2022-07-28T10:49:14.684Z,25.43
2022-07-28T10:52:08.694Z,25.61
2022-07-28T10:54:37.439Z,25.89
2022-07-28T10:57:08.567Z,26.24
2022-07-28T10:59:58.582Z,26.53
2022-07-28T11:03:02.065Z,25.69
2022-07-28T11:05:42.544Z,25.49
2022-07-28T11:08:27.731Z,25.63
2022-07-28T11:11:08.756Z,25.92
2022-07-28T11:13:41.166Z,26.13
2022-07-28T11:16:22.054Z,26.83
2022-07-28T11:19:40.301Z,26.54
2022-07-28T11:22:32.680Z,26.00
2022-07-28T11:25:19.185Z,25.83
2022-07-28T11:28:06.225Z,26.26
2022-07-28T11:30:53.123Z,25.70
2022-07-28T11:33:21.786Z,25.64
2022-07-28T11:36:00.454Z,25.64
2022-07-28T11:38:29.975Z,25.36
2022-07-28T11:40:57.885Z,25.55
2022-07-28T11:43:43.311Z,25.54
2022-07-28T11:46:34.433Z,26.40
2022-07-28T11:49:24.898Z,26.50
2022-07-28T11:52:11.125Z,26.05
2022-07-28T11:54:39.895Z,26.48
2022-07-28T11:57:09.782Z,26.54
2022-07-28T11:59:49.725Z,25.74
2022-07-28T12:02:19.334Z,26.34
2022-07-28T12:04:54.846Z,26.70
2022-07-28T12:07:29.012Z,26.74
2022-07-28T12:09:58.263Z,26.52
2022-07-28T12:12:27.938Z,26.48
2022-07-28T12:14:56.692Z,26.18
2022-07-28T12:17:32.769Z,26.58
2022-07-28T12:20:03.927Z,26.38
2022-07-28T12:22:33.748Z,26.77
2022-07-28T12:25:02.655Z,26.79
2022-07-28T12:27:32.004Z,26.91
2022-07-28T12:30:00.262Z,27.20
2022-07-28T12:32:32.826Z,27.46
2022-07-28T12:35:00.289Z,27.47
2022-07-28T12:37:28.481Z,26.79
2022-07-28T12:39:57.719Z,26.03
2022-07-28T12:42:32.094Z,26.15
2022-07-28T12:45:02.969Z,25.92
2022-07-28T12:47:31.503Z,25.98
2022-07-28T12:50:14.051Z,25.94
2022-07-28T12:52:42.864Z,26.12
2022-07-28T12:55:26.904Z,26.00
2022-07-28T12:57:54.632Z,26.21
2022-07-28T13:00:24.698Z,26.16
2022-07-28T13:02:55.378Z,26.08
2022-07-28T13:05:31.880Z,25.80
2022-07-28T13:08:02.272Z,26.17
2022-07-28T13:10:31.398Z,26.00
2022-07-28T13:19:09.970Z,26.78
2022-07-28T13:21:38.669Z,26.74
2022-07-28T13:24:06.531Z,26.22
2022-07-28T13:26:35.264Z,26.24
2022-07-28T13:29:03.122Z,26.28
2022-07-28T13:31:40.631Z,26.60
2022-07-28T13:34:10.125Z,26.95
2022-07-28T13:36:38.634Z,27.11
2022-07-28T13:39:07.085Z,26.69
2022-07-28T13:41:56.428Z,26.67
2022-07-28T13:44:23.201Z,26.77
2022-07-28T13:46:50.631Z,26.71
2022-07-28T13:49:18.437Z,26.72
2022-07-28T13:51:49.091Z,26.93
2022-07-28T13:54:19.732Z,26.79
2022-07-28T13:56:49.468Z,26.89
2022-07-28T13:59:17.471Z,27.03
2022-07-28T14:01:49.498Z,26.63
2022-07-28T14:04:17.980Z,26.86
2022-07-28T14:06:45.788Z,26.64
2022-07-28T14:09:18.818Z,26.48
2022-07-28T14:11:53.297Z,26.23
2022-07-28T14:14:24.112Z,26.63
2022-07-28T14:16:54.252Z,26.50
2022-07-28T14:19:23.530Z,26.59
2022-07-28T14:22:12.899Z,26.58
2022-07-28T14:24:41.485Z,26.65
2022-07-28T14:27:10.911Z,26.70
2022-07-28T14:29:38.505Z,26.47
2022-07-28T14:32:06.514Z,26.55
2022-07-28T14:34:34.384Z,26.58
2022-07-28T14:37:03.484Z,26.63
2022-07-28T14:39:35.918Z,26.66
2022-07-28T14:42:04.144Z,26.87
2022-07-28T14:44:33.140Z,26.48
2022-07-28T14:47:00.597Z,26.62
2022-07-28T14:49:28.398Z,26.55
2022-07-28T14:51:57.416Z,26.67
2022-07-28T14:54:24.871Z,26.92
2022-07-28T14:56:52.894Z,26.99
2022-07-28T14:59:20.384Z,27.10
2022-07-28T15:01:50.091Z,26.83
2022-07-28T15:04:18.277Z,26.88
2022-07-28T15:06:47.182Z,27.12
2022-07-28T15:09:14.718Z,27.20
2022-07-28T15:11:42.160Z,27.31
2022-07-28T15:14:09.686Z,27.15
2022-07-28T15:16:38.406Z,27.09
2022-07-28T15:19:08.907Z,27.10
2022-07-28T15:21:38.253Z,27.04
2022-07-28T15:24:06.922Z,27.00
2022-07-28T15:26:34.605Z,27.13
2022-07-28T15:29:02.115Z,27.02
2022-07-28T15:31:30.308Z,26.95
2022-07-28T15:33:58.351Z,26.65
2022-07-28T15:36:27.249Z,26.55
2022-07-28T15:38:55.260Z,26.43
2022-07-28T15:41:22.772Z,26.39
2022-07-28T15:43:50.192Z,26.42
2022-07-28T15:46:17.660Z,26.21
2022-07-28T15:48:45.750Z,26.22
2022-07-28T15:51:13.228Z,26.38
2022-07-28T15:53:42.082Z,26.54
2022-07-28T15:56:09.539Z,26.52
2022-07-28T15:58:36.945Z,26.55
2022-07-28T16:01:04.811Z,26.47
2022-07-28T16:03:32.279Z,26.56
2022-07-28T16:05:59.724Z,26.56
2022-07-28T16:08:27.660Z,26.47
2022-07-28T16:10:56.416Z,26.46
2022-07-28T16:13:36.424Z,26.49
2022-07-28T16:16:06.537Z,26.51
2022-07-28T16:18:34.434Z,26.50
2022-07-28T16:21:01.833Z,26.63
2022-07-28T16:23:29.658Z,26.59
2022-07-28T16:25:58.621Z,26.43
2022-07-28T16:28:26.458Z,26.31
2022-07-28T16:30:53.992Z,26.32
2022-07-28T16:33:21.599Z,26.22
2022-07-28T16:35:49.028Z,26.28
2022-07-28T16:38:16.468Z,26.21
2022-07-28T16:40:43.913Z,26.24
2022-07-28T16:43:12.702Z,26.11
2022-07-28T16:45:40.887Z,25.96
2022-07-28T16:48:08.408Z,25.97
2022-07-28T16:50:36.024Z,26.00
2022-07-28T16:53:04.890Z,26.01
2022-07-28T16:55:32.389Z,25.90
2022-07-28T16:57:59.778Z,26.04
2022-07-28T17:00:29.500Z,25.97
2022-07-28T17:02:56.965Z,25.84
2022-07-28T17:05:24.823Z,25.85
2022-07-28T17:07:52.786Z,25.87
2022-07-28T17:10:21.197Z,25.98
2022-07-28T17:12:55.225Z,25.81
2022-07-28T17:15:23.551Z,25.94
2022-07-28T17:17:52.964Z,26.01
2022-07-28T17:20:21.216Z,25.91
2022-07-28T17:22:49.060Z,25.83
2022-07-28T17:28:05.599Z,25.77
2022-07-28T17:30:33.809Z,25.79
2022-07-28T17:33:08.771Z,25.67
2022-07-28T17:35:37.290Z,25.54
2022-07-28T17:38:06.801Z,25.51
2022-07-28T17:40:34.414Z,25.39
2022-07-28T17:43:01.996Z,25.49
2022-07-28T17:45:29.413Z,25.44
2022-07-28T17:47:56.829Z,25.42
2022-07-28T17:50:25.549Z,25.37
2022-07-28T17:52:52.958Z,25.32
2022-07-28T17:55:55.863Z,25.32
2022-07-28T17:58:27.949Z,25.24
2022-07-28T18:00:58.648Z,25.10
2022-07-28T18:03:59.190Z,25.11
2022-07-28T18:06:26.721Z,25.05
2022-07-28T18:08:54.137Z,25.13
2022-07-28T18:11:21.554Z,25.13
2022-07-28T18:14:04.077Z,25.16
2022-07-28T18:16:33.040Z,25.09
2022-07-28T18:19:00.466Z,25.08
2022-07-28T18:21:29.244Z,24.94
2022-07-28T18:23:56.727Z,25.04
2022-07-28T18:26:24.172Z,24.99
2022-07-28T18:28:52.087Z,24.82
2022-07-28T18:31:19.542Z,24.77
2022-07-28T18:33:47.022Z,24.72
2022-07-28T18:36:14.441Z,24.50
2022-07-28T18:38:43.174Z,24.45
2022-07-28T18:41:10.584Z,24.32
2022-07-28T18:43:37.987Z,24.26
2022-07-28T18:46:05.474Z,24.25
2022-07-28T18:48:32.950Z,24.35
2022-07-28T18:51:00.899Z,24.19
2022-07-28T18:53:28.777Z,24.05
2022-07-28T18:55:57.545Z,23.97
2022-07-28T18:58:25.084Z,23.69
2022-07-28T19:00:52.531Z,23.70
2022-07-28T19:03:20.021Z,23.51
2022-07-28T19:05:47.588Z,23.33
2022-07-28T19:08:14.993Z,23.67
2022-07-28T19:10:44.609Z,23.68
2022-07-28T19:13:13.486Z,23.61
2022-07-28T19:15:41.284Z,23.34
2022-07-28T19:18:11.654Z,23.18
2022-07-28T19:20:39.633Z,23.31
2022-07-28T19:23:07.051Z,22.94
2022-07-28T19:25:35.966Z,22.85
2022-07-28T19:28:03.869Z,22.82
2022-07-28T19:30:32.757Z,22.60
2022-07-28T19:33:00.796Z,22.65
2022-07-28T19:35:28.226Z,22.66
2022-07-28T19:37:56.618Z,22.53
2022-07-28T19:40:25.516Z,22.84
2022-07-28T19:42:53.403Z,22.95
2022-07-28T19:45:20.924Z,22.62
2022-07-28T19:47:50.000Z,22.62
2022-07-28T19:50:18.285Z,22.15
2022-07-28T19:52:45.733Z,21.93
2022-07-28T19:55:17.730Z,21.74
2022-07-28T19:57:46.125Z,21.52
2022-07-28T20:00:17.236Z,21.51
2022-07-28T20:02:45.709Z,20.93
2022-07-28T20:05:15.352Z,20.98
2022-07-28T20:07:43.214Z,21.03
2022-07-28T20:10:10.954Z,20.87
2022-07-28T20:12:38.421Z,20.54
2022-07-28T20:15:06.438Z,20.29
2022-07-28T20:17:41.160Z,20.56
2022-07-28T20:20:11.535Z,20.20
2022-07-28T20:22:41.614Z,20.42
2022-07-28T20:25:11.049Z,20.35
2022-07-28T20:27:39.919Z,20.33
2022-07-28T20:30:09.612Z,20.42
2022-07-28T20:32:37.756Z,20.19
2022-07-28T20:35:06.556Z,20.13
2022-07-28T20:37:36.620Z,20.00
2022-07-28T20:40:07.914Z,19.73
2022-07-28T20:42:35.693Z,19.91
2022-07-28T20:45:03.979Z,19.79
2022-07-28T20:47:32.857Z,19.84
2022-07-28T20:50:00.778Z,19.33
2022-07-28T20:52:28.190Z,19.53
2022-07-28T20:54:56.086Z,19.16
2022-07-28T20:57:24.892Z,19.52
2022-07-28T20:59:52.458Z,19.65
2022-07-28T21:02:20.181Z,19.81
2022-07-28T21:04:50.300Z,19.70
2022-07-28T21:08:00.274Z,20.02
2022-07-28T21:10:07.039Z,20.47
2022-07-28T21:12:37.000Z,20.97
2022-07-28T21:15:04.921Z,20.67
2022-07-28T21:17:32.372Z,20.99
2022-07-28T21:19:59.808Z,20.84
2022-07-28T21:22:27.274Z,20.81
2022-07-28T21:24:55.617Z,20.54
2022-07-28T21:27:23.661Z,20.33
2022-07-28T21:32:17.995Z,20.10
2022-07-28T21:34:45.441Z,19.84
2022-07-28T21:37:14.036Z,19.71
2022-07-28T21:39:41.564Z,19.50
2022-07-28T21:42:09.541Z,19.47
2022-07-28T21:44:37.600Z,19.28
2022-07-28T21:47:06.979Z,19.37
2022-07-28T21:49:34.532Z,19.40
2022-07-28T21:52:01.981Z,19.33
2022-07-28T21:54:29.411Z,19.31
2022-07-28T21:56:57.022Z,19.27
2022-07-28T21:59:24.507Z,19.16
2022-07-28T22:01:52.017Z,18.94
2022-07-28T22:04:21.231Z,18.99
2022-07-28T22:06:48.993Z,18.52
2022-07-28T22:09:16.413Z,18.88
2022-07-28T22:11:43.956Z,19.01
2022-07-28T22:14:11.586Z,18.84
2022-07-28T22:16:39.108Z,18.85
2022-07-28T22:19:06.619Z,18.60
2022-07-28T22:21:35.360Z,19.25
2022-07-28T22:24:02.777Z,19.04
2022-07-28T22:26:30.200Z,19.04
2022-07-28T22:28:57.610Z,18.87
2022-07-28T22:31:25.096Z,18.90
2022-07-28T22:33:52.598Z,18.29
2022-07-28T22:36:20.038Z,18.46
2022-07-28T22:38:48.752Z,18.48
2022-07-28T22:41:16.159Z,18.21
2022-07-28T22:43:43.551Z,18.00
2022-07-28T22:46:11.054Z,17.49
2022-07-28T22:48:38.549Z,17.57
2022-07-28T22:51:10.752Z,17.85
2022-07-28T22:53:38.321Z,17.78
2022-07-28T22:56:07.797Z,17.55
2022-07-28T22:58:35.263Z,17.83
2022-07-28T23:01:03.941Z,18.02
2022-07-28T23:03:34.017Z,17.82
2022-07-28T23:06:02.425Z,17.73
2022-07-28T23:08:29.857Z,17.60
2022-07-28T23:10:57.325Z,17.63
2022-07-28T23:13:26.067Z,17.53
2022-07-28T23:15:53.531Z,17.68
2022-07-28T23:18:20.921Z,17.50
2022-07-28T23:20:48.837Z,17.56
2022-07-28T23:23:18.387Z,17.55
2022-07-28T23:25:46.720Z,17.54
2022-07-28T23:28:14.182Z,17.28
2022-07-28T23:30:42.977Z,17.14
2022-07-28T23:33:15.688Z,17.08
2022-07-28T23:35:57.953Z,17.05
2022-07-28T23:38:25.392Z,16.87
2022-07-28T23:40:53.003Z,17.01
2022-07-28T23:43:20.428Z,16.98
2022-07-28T23:45:49.431Z,16.94
2022-07-28T23:48:16.853Z,16.77
2022-07-28T23:50:44.253Z,16.95
2022-07-28T23:53:11.663Z,16.89
2022-07-28T23:55:39.071Z,16.87
2022-07-28T23:58:06.479Z,17.03
